Time;durP1;ratioP1;P1;durP2;ratioP2;P2;SDS_P1;SDS_P2;PMS_P1;PMS_P2;Temp;Humidity;BMP_temperature;BMP_pressure;BME280_temperature;BME280_humidity;BME280_pressure;Samples;Min_cycle;Max_cycle;Signal;HPM_P1;HPM_P2
2022/02/10 00:03:58;;;;;;;;;;;20.30;42.90;;;;;;5096847;28;19961;-64
2022/02/10 00:15:04;;;;;;;;;;;20.30;42.90;;;;;;5096649;28;19961;-63
2022/02/10 00:35:57;;;;;;;;;;;20.30;42.90;;;;;;5095935;28;20041;-63
2022/02/10 00:38:27;;;;;;;;;;;20.30;42.90;;;;;;5095710;28;19908;-63
2022/02/10 00:40:53;;;;;;;;;;;20.30;42.80;;;;;;5095805;28;19915;-63
2022/02/10 00:43:18;;;;;;;;;;;20.30;42.80;;;;;;5095738;28;20096;-63
2022/02/10 00:45:45;;;;;;;;;;;20.30;42.90;;;;;;5095694;28;19908;-63
2022/02/10 00:48:11;;;;;;;;;;;20.30;42.90;;;;;;5095691;28;19912;-63
2022/02/10 00:50:37;;;;;;;;;;;20.30;42.90;;;;;;5095952;28;19908;-64
2022/02/10 00:53:09;;;;;;;;;;;20.30;42.80;;;;;;5095884;28;19963;-64
2022/02/10 00:55:37;;;;;;;;;;;20.20;42.80;;;;;;5095589;28;20329;-63
2022/02/10 00:58:06;;;;;;;;;;;20.30;42.80;;;;;;5095756;28;19908;-64
2022/02/10 01:29:34;;;;;;;;;;;20.20;42.80;;;;;;5095240;28;20382;-63
2022/02/10 01:30:06;;;;;;;;;;;20.30;42.80;;;;;;5094916;28;20329;-64
2022/02/10 01:32:32;;;;;;;;;;;20.20;42.80;;;;;;5094927;28;20083;-63
2022/02/10 01:34:58;;;;;;;;;;;20.20;42.80;;;;;;5094817;28;19949;-64
2022/02/10 01:37:23;;;;;;;;;;;20.20;42.80;;;;;;5094989;28;20294;-62
2022/02/10 01:39:56;;;;;;;;;;;20.20;42.80;;;;;;5094703;28;19981;-63
2022/02/10 01:57:46;;;;;;;;;;;20.20;42.80;;;;;;5094609;28;19953;-64
2022/02/10 02:04:10;;;;;;;;;;;20.20;42.70;;;;;;5094466;28;19961;-63
2022/02/10 02:06:46;;;;;;;;;;;20.20;42.80;;;;;;5075956;28;19912;-63
2022/02/10 02:09:14;;;;;;;;;;;20.20;42.80;;;;;;5094152;28;19915;-64
2022/02/10 02:11:40;;;;;;;;;;;20.20;42.70;;;;;;5094051;28;20003;-63
2022/02/10 02:14:07;;;;;;;;;;;20.10;42.80;;;;;;5093954;28;20355;-63
2022/02/10 02:16:32;;;;;;;;;;;20.20;42.80;;;;;;5093987;28;19908;-64
2022/02/10 02:18:58;;;;;;;;;;;20.20;42.80;;;;;;5093783;28;19984;-64
2022/02/10 02:21:24;;;;;;;;;;;20.20;42.70;;;;;;5093825;28;19916;-64
2022/02/10 02:23:49;;;;;;;;;;;20.10;42.80;;;;;;5093859;28;19998;-64
2022/02/10 02:26:20;;;;;;;;;;;20.20;42.80;;;;;;5093822;28;19909;-64
2022/02/10 02:28:50;;;;;;;;;;;20.10;42.80;;;;;;5093685;28;20360;-63
2022/02/10 02:31:22;;;;;;;;;;;20.10;42.70;;;;;;5093787;28;19908;-64
2022/02/10 03:06:19;;;;;;;;;;;20.10;42.70;;;;;;5093606;28;20097;-63
2022/02/10 03:08:50;;;;;;;;;;;20.10;42.70;;;;;;5093618;28;19908;-63
2022/02/10 03:11:17;;;;;;;;;;;20.10;42.70;;;;;;5093647;28;20041;-64
2022/02/10 03:13:49;;;;;;;;;;;20.10;42.70;;;;;;5093414;28;19916;-64
2022/02/10 03:16:41;;;;;;;;;;;20.10;42.70;;;;;;5093598;28;20275;-64
2022/02/10 03:22:02;;;;;;;;;;;20.10;42.70;;;;;;5093574;28;19915;-64
2022/02/10 04:00:36;;;;;;;;;;;20.00;42.70;;;;;;5096444;28;19939;-63
2022/02/10 04:09:45;;;;;;;;;;;20.00;42.70;;;;;;5096551;28;20392;-63
2022/02/10 04:16:35;;;;;;;;;;;20.00;42.70;;;;;;5096693;28;19912;-64
2022/02/10 04:21:56;;;;;;;;;;;20.00;42.70;;;;;;5096540;28;19915;-63
2022/02/10 04:32:29;;;;;;;;;;;20.00;42.60;;;;;;5096392;28;19908;-64
2022/02/10 04:43:25;;;;;;;;;;;20.00;42.60;;;;;;5095856;28;19916;-63
2022/02/10 04:54:47;;;;;;;;;;;20.00;42.60;;;;;;5095678;28;19954;-63
2022/02/10 05:03:09;;;;;;;;;;;20.00;42.60;;;;;;5095275;28;19950;-64
2022/02/10 05:08:25;;;;;;;;;;;20.00;42.60;;;;;;5095264;28;19908;-64
2022/02/10 05:16:29;;;;;;;;;;;20.00;42.60;;;;;;5095445;28;19912;-63
2022/02/10 05:24:12;;;;;;;;;;;20.00;42.50;;;;;;5094897;28;19912;-64
2022/02/10 05:34:58;;;;;;;;;;;20.00;42.20;;;;;;5095126;28;19996;-64
2022/02/10 05:37:29;;;;;;;;;;;20.10;42.20;;;;;;5094792;28;19908;-64
2022/02/10 05:39:57;;;;;;;;;;;20.10;42.20;;;;;;5094554;28;19954;-64
2022/02/10 05:47:40;;;;;;;;;;;20.10;42.20;;;;;;5094694;28;19915;-65
2022/02/10 05:50:33;;;;;;;;;;;20.20;42.10;;;;;;5094160;28;19908;-64
2022/02/10 05:58:23;;;;;;;;;;;20.20;42.10;;;;;;5094375;28;19915;-64
2022/02/10 06:41:00;;;;;;;;;;;20.20;42.10;;;;;;5093597;28;19957;-64
2022/02/10 06:46:56;;;;;;;;;;;20.30;42.00;;;;;;5093772;28;19912;-64
2022/02/10 06:48:08;;;;;;;;;;;20.30;42.00;;;;;;5093475;28;19909;-64
2022/02/10 06:53:21;;;;;;;;;;;20.30;41.90;;;;;;5093531;28;19908;-64
2022/02/10 07:06:42;;;;;;;;;;;20.30;41.90;;;;;;5093609;28;19995;-64
2022/02/10 07:09:36;;;;;;;;;;;20.30;41.80;;;;;;5093465;28;20315;-62
2022/02/10 07:12:17;;;;;;;;;;;20.30;41.90;;;;;;5074713;28;19954;-61
2022/02/10 07:15:12;;;;;;;;;;;20.30;41.90;;;;;;5093067;28;19934;-62
2022/02/10 07:43:27;;;;;;;;;;;20.30;41.70;;;;;;5093025;28;19981;-63
2022/02/10 07:48:03;;;;;;;;;;;20.40;41.90;;;;;;5096883;28;19908;-63
2022/02/10 07:50:55;;;;;;;;;;;20.40;41.80;;;;;;5096899;28;19908;-62
2022/02/10 08:54:03;;;;;;;;;;;20.40;41.90;;;;;;5093603;28;19954;-61
2022/02/10 09:18:13;;;;;;;;;;;20.50;41.90;;;;;;5093803;28;20332;-61
2022/02/10 09:23:55;;;;;;;;;;;20.50;41.90;;;;;;5094559;28;19952;-62
2022/02/10 09:58:10;;;;;;;;;;;20.50;42.00;;;;;;5092959;28;19958;-61
2022/02/10 10:00:55;;;;;;;;;;;20.50;42.00;;;;;;5092702;28;20048;-62
2022/02/10 10:03:31;;;;;;;;;;;20.50;41.90;;;;;;5093351;28;19908;-63
2022/02/10 10:06:01;;;;;;;;;;;20.50;42.00;;;;;;5092131;28;20279;-63
2022/02/10 10:16:55;;;;;;;;;;;20.60;42.00;;;;;;5092267;28;20310;-61
2022/02/10 10:22:58;;;;;;;;;;;20.50;42.00;;;;;;5049866;28;19913;-61
2022/02/10 10:50:44;;;;;;;;;;;20.50;42.10;;;;;;5092610;28;19935;-61
2022/02/10 10:53:21;;;;;;;;;;;20.50;42.10;;;;;;5092387;28;20279;-61
2022/02/10 10:55:57;;;;;;;;;;;20.50;42.10;;;;;;5092254;28;19995;-63
2022/02/10 11:36:50;;;;;;;;;;;20.60;42.10;;;;;;5091908;28;20030;-62
2022/02/10 11:42:14;;;;;;;;;;;20.60;42.10;;;;;;5092245;28;19943;-62
2022/02/10 12:29:22;;;;;;;;;;;20.60;42.10;;;;;;5091412;28;19964;-62
2022/02/10 12:30:06;;;;;;;;;;;20.70;42.00;;;;;;5095306;28;19915;-63
2022/02/10 13:25:01;;;;;;;;;;;20.80;42.00;;;;;;5094582;28;19954;-62
2022/02/10 14:12:56;;;;;;;;;;;20.80;42.20;;;;;;5093224;28;19909;-62
2022/02/10 14:18:05;;;;;;;;;;;20.70;42.20;;;;;;5093077;28;19924;-62
2022/02/10 14:23:18;;;;;;;;;;;20.70;42.20;;;;;;5093774;28;19946;-63
2022/02/10 14:28:10;;;;;;;;;;;20.70;42.20;;;;;;5092557;28;19998;-63
2022/02/10 14:30:36;;;;;;;;;;;20.70;42.30;;;;;;5092565;28;19995;-62
2022/02/10 14:33:01;;;;;;;;;;;20.70;42.20;;;;;;5091191;28;19908;-63
2022/02/10 14:35:40;;;;;;;;;;;20.70;42.20;;;;;;5092153;28;19909;-64
2022/02/10 14:38:20;;;;;;;;;;;20.70;42.20;;;;;;5091924;28;20390;-62
2022/02/10 15:33:33;;;;;;;;;;;20.70;42.30;;;;;;5092281;28;19915;-62
2022/02/10 15:52:24;;;;;;;;;;;20.70;42.30;;;;;;5097131;28;20407;-63
2022/02/10 16:11:35;;;;;;;;;;;20.60;42.40;;;;;;5096402;28;19930;-63
2022/02/10 16:16:52;;;;;;;;;;;20.60;42.40;;;;;;5096231;28;20274;-63
2022/02/10 16:19:17;;;;;;;;;;;20.60;42.30;;;;;;5095981;28;19922;-64
2022/02/10 16:21:46;;;;;;;;;;;20.60;42.40;;;;;;5096213;28;20368;-63
2022/02/10 16:24:18;;;;;;;;;;;20.60;42.40;;;;;;5077737;28;20313;-64
2022/02/10 16:26:58;;;;;;;;;;;20.60;42.40;;;;;;5077857;28;19969;-64
2022/02/10 16:29:25;;;;;;;;;;;20.60;42.30;;;;;;5096130;28;19908;-63
2022/02/10 16:31:50;;;;;;;;;;;20.60;42.30;;;;;;5095681;28;20456;-63
2022/02/10 16:34:16;;;;;;;;;;;20.60;42.40;;;;;;5095023;28;19909;-64
2022/02/10 16:36:42;;;;;;;;;;;20.60;42.30;;;;;;5075968;28;20369;-64
2022/02/10 16:39:07;;;;;;;;;;;20.60;42.30;;;;;;5093860;28;19954;-63
2022/02/10 16:41:33;;;;;;;;;;;20.60;42.30;;;;;;5093944;28;19915;-62
2022/02/10 16:43:59;;;;;;;;;;;20.60;42.30;;;;;;5093983;28;19908;-63
2022/02/10 16:46:24;;;;;;;;;;;20.60;42.30;;;;;;5094078;28;19908;-63
2022/02/10 16:48:50;;;;;;;;;;;20.60;42.30;;;;;;5093884;28;20416;-64
2022/02/10 16:51:15;;;;;;;;;;;20.60;42.30;;;;;;5077031;28;19938;-64
2022/02/10 16:53:46;;;;;;;;;;;20.60;42.30;;;;;;5095741;28;19915;-63
2022/02/10 16:56:18;;;;;;;;;;;20.60;42.30;;;;;;5095510;28;19908;-63
2022/02/10 16:58:58;;;;;;;;;;;20.60;42.30;;;;;;5095185;28;19989;-63
2022/02/10 17:04:35;;;;;;;;;;;20.60;42.20;;;;;;5095201;28;19959;-64
2022/02/10 17:18:02;;;;;;;;;;;20.60;42.20;;;;;;5095144;28;20266;-63
2022/02/10 17:25:41;;;;;;;;;;;20.60;42.20;;;;;;5094839;28;20057;-63
2022/02/10 17:28:09;;;;;;;;;;;20.60;42.10;;;;;;5094715;28;19961;-63
2022/02/10 17:46:24;;;;;;;;;;;20.60;42.10;;;;;;5094867;28;20087;-63
2022/02/10 17:54:01;;;;;;;;;;;20.60;42.10;;;;;;5094434;28;19939;-64
2022/02/10 17:56:27;;;;;;;;;;;20.60;42.10;;;;;;5094371;28;19915;-64
2022/02/10 17:58:53;;;;;;;;;;;20.60;42.00;;;;;;5075989;28;19908;-63
2022/02/10 18:01:19;;;;;;;;;;;20.50;42.00;;;;;;5093991;28;19954;-63
2022/02/10 18:03:45;;;;;;;;;;;20.60;42.00;;;;;;5094127;28;19966;-63
2022/02/10 18:06:25;;;;;;;;;;;20.50;42.00;;;;;;5075896;28;20283;-63
2022/02/10 18:14:11;;;;;;;;;;;20.50;42.00;;;;;;5093938;28;19915;-64
2022/02/10 18:16:43;;;;;;;;;;;20.60;42.10;;;;;;5093895;28;19908;-63
2022/02/10 19:07:39;;;;;;;;;;;20.50;42.00;;;;;;5093594;28;19970;-64
2022/02/10 19:10:09;;;;;;;;;;;20.50;42.00;;;;;;5075186;28;19913;-63
2022/02/10 19:12:52;;;;;;;;;;;20.50;41.90;;;;;;5093425;28;19908;-64
2022/02/10 19:15:32;;;;;;;;;;;20.50;41.90;;;;;;5093349;28;20364;-64
2022/02/10 19:17:58;;;;;;;;;;;20.50;41.90;;;;;;5093130;28;20435;-64
2022/02/10 19:20:23;;;;;;;;;;;20.50;41.90;;;;;;5093589;28;20015;-64
2022/02/10 19:22:49;;;;;;;;;;;20.50;41.90;;;;;;5097424;28;19909;-63
2022/02/10 19:25:15;;;;;;;;;;;20.50;41.90;;;;;;5097308;28;19954;-63
2022/02/10 19:27:41;;;;;;;;;;;20.50;41.90;;;;;;5097240;28;20260;-64
2022/02/10 19:30:09;;;;;;;;;;;20.50;41.90;;;;;;5097418;28;19958;-63
2022/02/10 19:32:36;;;;;;;;;;;20.50;41.90;;;;;;5097392;28;19908;-64
2022/02/10 19:35:02;;;;;;;;;;;20.50;41.90;;;;;;5097202;28;19908;-64
2022/02/10 19:37:30;;;;;;;;;;;20.50;41.90;;;;;;5097108;28;20003;-64
2022/02/10 19:40:02;;;;;;;;;;;20.50;41.90;;;;;;5097019;28;19964;-63
2022/02/10 19:42:31;;;;;;;;;;;20.50;41.90;;;;;;5097183;28;20269;-64
2022/02/10 19:45:02;;;;;;;;;;;20.50;41.90;;;;;;5097195;28;19908;-63
2022/02/10 19:47:28;;;;;;;;;;;20.50;41.80;;;;;;5097176;28;19908;-64
2022/02/10 19:49:55;;;;;;;;;;;20.50;41.70;;;;;;5096717;28;19908;-64
2022/02/10 19:52:21;;;;;;;;;;;20.50;41.80;;;;;;5097194;28;20309;-63
2022/02/10 19:54:51;;;;;;;;;;;20.50;41.80;;;;;;5096915;28;19915;-63
2022/02/10 19:57:18;;;;;;;;;;;20.50;41.70;;;;;;5096823;28;20090;-64
2022/02/10 19:59:44;;;;;;;;;;;20.50;41.60;;;;;;5096562;28;20018;-63
2022/02/10 20:02:10;;;;;;;;;;;20.50;41.70;;;;;;5078215;28;19975;-63
2022/02/10 20:04:35;;;;;;;;;;;20.50;41.80;;;;;;5096838;28;20395;-63
2022/02/10 20:07:00;;;;;;;;;;;20.50;41.70;;;;;;5096724;28;19916;-64
2022/02/10 20:09:26;;;;;;;;;;;20.50;41.70;;;;;;5096413;28;19908;-63
2022/02/10 20:11:51;;;;;;;;;;;20.50;41.70;;;;;;5096668;28;20006;-64
2022/02/10 20:14:21;;;;;;;;;;;20.50;41.70;;;;;;5096400;28;19931;-65
2022/02/10 20:16:47;;;;;;;;;;;20.50;41.70;;;;;;5078130;28;19916;-64
2022/02/10 20:19:12;;;;;;;;;;;20.40;41.70;;;;;;5096742;28;19909;-64
2022/02/10 20:21:38;;;;;;;;;;;20.50;41.80;;;;;;5096198;28;19991;-63
2022/02/10 20:24:03;;;;;;;;;;;20.40;41.70;;;;;;5096529;28;19931;-63
2022/02/10 20:26:29;;;;;;;;;;;20.40;41.70;;;;;;5096006;28;19915;-64
2022/02/10 20:28:54;;;;;;;;;;;20.40;41.80;;;;;;5096044;28;19915;-63
2022/02/10 20:31:21;;;;;;;;;;;20.40;41.70;;;;;;5096616;28;19915;-64
2022/02/10 20:33:47;;;;;;;;;;;20.40;41.70;;;;;;5095108;28;19915;-64
2022/02/10 20:36:13;;;;;;;;;;;20.40;41.70;;;;;;5096073;28;19908;-64
2022/02/10 20:38:42;;;;;;;;;;;20.50;41.60;;;;;;5096480;28;19912;-64
2022/02/10 20:41:12;;;;;;;;;;;20.40;41.60;;;;;;5096373;28;19916;-64
2022/02/10 20:43:38;;;;;;;;;;;20.40;41.60;;;;;;5096371;28;19950;-63
2022/02/10 20:46:07;;;;;;;;;;;20.40;41.60;;;;;;5095821;28;20288;-63
2022/02/10 20:48:34;;;;;;;;;;;20.50;41.60;;;;;;5078540;28;19908;-64
2022/02/10 20:51:01;;;;;;;;;;;20.40;41.60;;;;;;5095872;28;19915;-64
2022/02/10 20:53:29;;;;;;;;;;;20.40;41.50;;;;;;5096024;28;20435;-64
2022/02/10 20:55:55;;;;;;;;;;;20.50;41.40;;;;;;5096276;28;19915;-64
2022/02/10 20:58:22;;;;;;;;;;;20.40;41.50;;;;;;5095801;28;19950;-63
2022/02/10 21:00:50;;;;;;;;;;;20.40;41.50;;;;;;5096103;28;19920;-64
2022/02/10 21:03:16;;;;;;;;;;;20.50;41.40;;;;;;5096270;28;20275;-63
2022/02/10 21:05:43;;;;;;;;;;;20.50;41.40;;;;;;5078519;28;19915;-64
2022/02/10 21:08:31;;;;;;;;;;;20.50;41.40;;;;;;5096454;28;19958;-64
2022/02/10 21:10:54;;;;;;;;;;;20.50;41.30;;;;;;5095976;28;19933;-64
2022/02/10 21:13:22;;;;;;;;;;;20.40;41.30;;;;;;5096138;28;20375;-64
2022/02/10 21:15:48;;;;;;;;;;;20.40;41.30;;;;;;5095611;28;20340;-64
2022/02/10 21:18:15;;;;;;;;;;;20.40;41.30;;;;;;5096379;28;19947;-64
2022/02/10 21:20:41;;;;;;;;;;;20.40;41.30;;;;;;5095811;28;20314;-64
2022/02/10 21:23:23;;;;;;;;;;;20.40;41.30;;;;;;5095157;28;20283;-63
2022/02/10 21:25:52;;;;;;;;;;;20.40;41.30;;;;;;5095475;28;19908;-63
2022/02/10 21:28:24;;;;;;;;;;;20.40;41.40;;;;;;5095648;28;19908;-63
2022/02/10 21:30:52;;;;;;;;;;;20.40;41.50;;;;;;5096477;28;19995;-64
2022/02/10 21:38:49;;;;;;;;;;;20.30;41.60;;;;;;5096427;28;19912;-63
2022/02/10 21:42:02;;;;;;;;;;;20.30;41.60;;;;;;5077779;28;19916;-63
2022/02/10 21:58:03;;;;;;;;;;;20.10;41.70;;;;;;5095128;28;19947;-65
2022/02/10 22:16:28;;;;;;;;;;;20.10;41.70;;;;;;5079676;28;20028;-63
2022/02/10 22:19:09;;;;;;;;;;;20.10;41.70;;;;;;5076258;28;20003;-64
2022/02/10 22:21:39;;;;;;;;;;;20.10;41.70;;;;;;5076104;28;19916;-64
2022/02/10 22:24:10;;;;;;;;;;;20.10;41.60;;;;;;5094744;28;19908;-64
2022/02/10 22:26:37;;;;;;;;;;;20.10;41.70;;;;;;5094243;28;19923;-63
2022/02/10 22:32:19;;;;;;;;;;;20.10;41.60;;;;;;5094158;28;19915;-64
2022/02/10 22:34:51;;;;;;;;;;;20.10;41.60;;;;;;5075966;28;19961;-65
2022/02/10 22:37:19;;;;;;;;;;;20.10;41.60;;;;;;5094067;28;19955;-64
2022/02/10 22:39:46;;;;;;;;;;;20.00;41.60;;;;;;5094169;28;19919;-63
2022/02/10 22:42:12;;;;;;;;;;;20.00;41.50;;;;;;5094034;28;19961;-64
2022/02/10 22:44:38;;;;;;;;;;;20.00;41.50;;;;;;5093767;28;19908;-64
2022/02/10 22:47:05;;;;;;;;;;;20.00;41.50;;;;;;5075640;28;19912;-64
2022/02/10 22:49:31;;;;;;;;;;;20.00;41.50;;;;;;5094179;28;19958;-65
2022/02/10 22:51:57;;;;;;;;;;;20.00;41.50;;;;;;5093805;28;19938;-64
2022/02/10 22:54:22;;;;;;;;;;;20.00;41.50;;;;;;5094047;28;19915;-64
2022/02/10 22:56:49;;;;;;;;;;;20.00;41.50;;;;;;5093567;28;19908;-64
2022/02/10 22:59:15;;;;;;;;;;;20.00;41.50;;;;;;5094305;28;20006;-65
2022/02/10 23:01:40;;;;;;;;;;;20.00;41.40;;;;;;5093897;28;19999;-64
2022/02/10 23:04:06;;;;;;;;;;;20.00;41.40;;;;;;5094025;28;19939;-65
2022/02/10 23:06:32;;;;;;;;;;;20.00;41.50;;;;;;5094257;28;19947;-65
2022/02/10 23:09:00;;;;;;;;;;;20.00;41.50;;;;;;5094238;28;20000;-65
2022/02/10 23:11:28;;;;;;;;;;;20.00;41.50;;;;;;5093620;28;20347;-65
2022/02/10 23:13:55;;;;;;;;;;;20.00;41.50;;;;;;5094027;28;20036;-64
2022/02/10 23:16:20;;;;;;;;;;;20.00;41.50;;;;;;5075695;28;19953;-65
2022/02/10 23:18:45;;;;;;;;;;;20.00;41.50;;;;;;5075564;28;19908;-64
2022/02/10 23:21:14;;;;;;;;;;;19.90;41.40;;;;;;5093671;28;19978;-64
2022/02/10 23:23:40;;;;;;;;;;;20.00;41.50;;;;;;5075351;28;19934;-64
2022/02/10 23:26:07;;;;;;;;;;;19.90;41.50;;;;;;5093792;28;20405;-65
2022/02/10 23:28:34;;;;;;;;;;;19.90;41.40;;;;;;5093613;28;19915;-65
2022/02/10 23:31:01;;;;;;;;;;;19.90;41.40;;;;;;5093627;28;20000;-65
2022/02/10 23:33:33;;;;;;;;;;;19.90;41.50;;;;;;5075853;28;19908;-64
2022/02/10 23:38:30;;;;;;;;;;;19.90;41.50;;;;;;5093551;28;19951;-65
2022/02/10 23:41:43;;;;;;;;;;;19.90;41.40;;;;;;5093512;28;20010;-64
2022/02/10 23:43:50;;;;;;;;;;;19.90;41.50;;;;;;5093432;28;19944;-63
2022/02/10 23:46:17;;;;;;;;;;;19.90;41.40;;;;;;5075119;28;19953;-64
2022/02/10 23:48:43;;;;;;;;;;;19.90;41.50;;;;;;5093861;28;19908;-64
2022/02/10 23:51:09;;;;;;;;;;;19.90;41.50;;;;;;5093564;28;20265;-63
2022/02/10 23:53:35;;;;;;;;;;;19.80;41.50;;;;;;5093389;28;19943;-63
2022/02/10 23:56:03;;;;;;;;;;;19.80;41.40;;;;;;5093049;28;19916;-64
2022/02/10 23:58:56;;;;;;;;;;;19.90;41.40;;;;;;5093641;28;19915;-64
